ANACAPA ISLAND CA US current weather conditions

sailwx.info

Wind from 236 at 4 knots gusting 8

Air temperature 18.3° C
Dewpoint 11.4° C

Last reported at 2015-May-24 20:23 UTC.
Time now 2015-May-24 21:23 UTC

Location: N 34°01' W 119°22'.
View on Google Maps.

See reports from other nearby stations

  
Tides and Currents Weather Stations Pressure Air Temp Water Temp Dewpoint Dewpoint Depression Visibility Wind Speed Wind Dir Waves Ship Positions
date/time (UTC)wind fromknots sea level pressurealtimeterstation pressurevisibilityair tempwater tempwave heightnotes
2015-May-24 20:23 236 4 gusting 8 18.3
2015-May-24 19:23 218 2 gusting 6 18.9
2015-May-24 18:23 208 0 gusting 5 18.3
2015-May-24 17:23 334 3 gusting 10 16.1
2015-May-24 16:23 313 5 gusting 13 15.0
2015-May-24 15:23 305 7 gusting 13 14.4
2015-May-24 14:23 301 8 gusting 17 13.3
2015-May-24 13:23 293 9 gusting 17 12.8
2015-May-24 12:23 285 8 gusting 15 12.8
2015-May-24 11:23 292 10 gusting 18 12.8
2015-May-24 10:23 295 10 gusting 18 13.3
2015-May-24 09:23 296 9 gusting 19 13.3
2015-May-24 08:23 289 10 gusting 19 13.3
2015-May-24 07:23 293 13 gusting 20 13.3
2015-May-24 06:23 293 13 gusting 22 13.3
2015-May-24 05:23 286 13 gusting 23 13.3
2015-May-24 04:23 280 13 gusting 21 13.9
2015-May-24 03:23 290 12 gusting 22 14.4
2015-May-24 02:23 283 12 gusting 20 15.0
2015-May-24 01:23 283 10 gusting 19 15.6
2015-May-24 00:23 297 10 gusting 19 16.1
2015-May-23 23:23 287 11 gusting 19 16.1
2015-May-23 22:23 296 9 gusting 16 17.2
2015-May-23 21:23 298 8 gusting 16 17.8
2015-May-23 20:23 287 7 gusting 13 17.2
2015-May-23 19:23 303 6 gusting 14 17.8
2015-May-23 18:23 292 9 gusting 15 16.1
2015-May-23 17:23 295 7 gusting 14 16.7
2015-May-23 16:23 300 8 gusting 15 16.1
2015-May-23 15:23 293 7 gusting 13 15.6
2015-May-23 14:23 300 6 gusting 15 15.0
2015-May-23 13:23 298 8 gusting 13 13.9
2015-May-23 12:23 291 8 gusting 13 13.9
2015-May-23 11:23 290 8 gusting 13 13.9
2015-May-23 10:23 291 6 gusting 12 14.4
2015-May-23 09:23 294 7 gusting 14 13.9
2015-May-23 08:23 287 9 gusting 16 14.4
2015-May-23 07:23 294 11 gusting 19 14.4
2015-May-23 06:23 289 12 gusting 23 14.4
2015-May-23 05:23 286 11 gusting 19 14.4
2015-May-23 04:23 274 13 gusting 19 15.6
2015-May-23 03:23 266 6 gusting 13 16.1
2015-May-23 02:23 330 0 gusting 6 16.7
2015-May-23 01:23 036 4 gusting 8 17.8
2015-May-23 00:23 029 3 gusting 7 18.3
2015-May-22 23:23 122 1 gusting 6 20.0
2015-May-22 22:23 061 1 gusting 7 20.6
2015-May-22 21:23 180 2 gusting 8 19.4